Mount Hope, Alabama
Current Conditions -  °F | °C
As of 11:56 AM on Saturday 20 Dec 2014 (Local Time) from K1M4 Reporting Station
Clear Clear  
Wind Chill: 45°   Ceiling: Unl
Heat Index: 48°   Visibility: 10mi
Dew Point: 34°   Wind: 6mph
Humidity: 59%   Direction: 30°NNE
Pressure: 30.23"   Gusts: NA
Location:  34.45°N, 87.48°W
Report Text: K1M4 201756Z AUTO 03005KT 10SM CLR 09/01 A3023 RMK AO2 58009 T00880011 10088 21005 SLP246 $
Loading
Personal Weather Stations






























Interactive Weather Map New forecast layout! Learn more

10-Day Weather Forecast

Advertisements
Track Severe Weather on mobile